Terminal Aerodrome Forecast
Issued by NWS

Home | Current Version | Previous Version | Text Only | Print | Product List | Glossary On
Versions: 1 2 3 4 5 6 7 8 9 10 11 12 13 14 15 16 17 18 19 20 21
000
FTUS46 KMTR 270500
TAFOAK
TAF
KOAK 270534Z 2706/2812 28006KT P6SM FEW012 SCT200
     FM271000 05003KT P6SM FEW012 SCT200
     FM271700 24007KT P6SM SKC
     FM272000 26013KT P6SM SKC
     FM280500 29006KT P6SM SKC
     FM280800 28005KT P6SM BKN015=

USA.gov is the U.S. government's official web portal to all federal, state and local government web resources and services.